< < Back
Terminal Aerodrome Forecast


Current Version              Previous Versions:   1  2  3  4  5  6  7  8  9  

Terminal Aerodrome Forecast

569
FTUS44 KMRX 251120
TAFTYS
TAF
KTYS 251120Z 2512/2612 21003KT P6SM SCT250
     FM251500 22004KT P6SM SCT050 BKN200
     FM252100 25006KT P6SM VCTS BKN050CB
     FM260400 VRB04KT P6SM SCT050 SCT250=

Latest METAR

738
SAUS80 KWBC 252200 RRB
MTRTYS
METAR KTYS 252153Z 29007G15KT 10SM FEW045 FEW130 SCT250 34/19 A2997 RMK
AO2 SLP136 CB DSNT NE AND DSNT SW T03440194


USA.gov is the U.S. government's official web portal to all federal, state and local government web resources and services.